createdAt,value
2022-07-28T00:00:47.569Z,82.58
2022-07-28T00:05:50.238Z,82.88
2022-07-28T00:10:52.965Z,83.02
2022-07-28T00:15:56.998Z,83.15
2022-07-28T00:20:59.869Z,83.90
2022-07-28T00:26:03.210Z,83.11
2022-07-28T00:31:09.474Z,83.02
2022-07-28T00:36:13.456Z,83.35
2022-07-28T00:41:20.731Z,84.57
2022-07-28T00:46:25.339Z,83.81
2022-07-28T00:51:29.513Z,83.84
2022-07-28T00:56:33.192Z,83.92
2022-07-28T01:01:37.691Z,84.67
2022-07-28T01:06:59.755Z,84.53
2022-07-28T01:12:11.993Z,84.86
2022-07-28T01:17:27.965Z,84.37
2022-07-28T01:22:36.084Z,85.22
2022-07-28T01:27:52.094Z,85.84
2022-07-28T01:33:02.061Z,84.94
2022-07-28T01:38:08.363Z,85.30
2022-07-28T01:43:15.400Z,86.83
2022-07-28T01:48:22.025Z,86.56
2022-07-28T01:53:27.202Z,87.10
2022-07-28T01:58:31.690Z,88.15
2022-07-28T02:03:38.041Z,88.24
2022-07-28T02:08:42.598Z,89.15
2022-07-28T02:13:48.132Z,89.04
2022-07-28T02:18:54.777Z,89.51
2022-07-28T02:23:59.531Z,89.38
2022-07-28T02:29:04.232Z,90.72
2022-07-28T02:34:11.947Z,90.64
2022-07-28T02:39:21.570Z,91.33
2022-07-28T02:44:29.363Z,92.61
2022-07-28T02:49:36.214Z,91.12
2022-07-28T02:54:41.494Z,92.17
2022-07-28T02:59:45.861Z,92.09
2022-07-28T03:05:01.589Z,93.26
2022-07-28T03:10:05.984Z,93.20
2022-07-28T03:15:10.164Z,93.26
2022-07-28T03:20:15.469Z,92.87
2022-07-28T03:25:22.552Z,92.94
2022-07-28T03:30:30.373Z,93.01
2022-07-28T03:35:36.510Z,93.05
2022-07-28T03:40:40.465Z,93.42
2022-07-28T03:45:49.326Z,92.47
2022-07-28T03:50:53.405Z,93.05
2022-07-28T03:55:57.687Z,92.33
2022-07-28T04:01:02.862Z,92.67
2022-07-28T04:06:07.041Z,92.63
2022-07-28T04:11:09.777Z,92.62
2022-07-28T04:16:12.472Z,93.03
2022-07-28T04:21:17.117Z,91.73
2022-07-28T04:26:19.959Z,92.39
2022-07-28T04:31:22.708Z,92.39
2022-07-28T04:36:27.307Z,90.63
2022-07-28T04:41:30.220Z,91.30
2022-07-28T04:46:34.724Z,91.89
2022-07-28T04:51:38.797Z,90.74
2022-07-28T04:56:41.611Z,91.21
2022-07-28T05:01:44.384Z,91.60
2022-07-28T05:06:48.570Z,91.03
2022-07-28T05:11:51.252Z,90.40
2022-07-28T05:16:54.108Z,91.39
2022-07-28T05:21:58.281Z,90.68
2022-07-28T05:27:01.075Z,89.82
2022-07-28T05:32:17.187Z,88.47
2022-07-28T05:37:21.840Z,88.17
2022-07-28T05:42:26.479Z,87.82
2022-07-28T05:47:29.127Z,87.76
2022-07-28T05:52:33.278Z,88.23
2022-07-28T05:57:36.800Z,88.40
2022-07-28T06:02:39.526Z,87.81
2022-07-28T06:07:44.477Z,87.16
2022-07-28T06:12:48.776Z,87.08
2022-07-28T06:17:53.234Z,87.31
2022-07-28T06:22:57.685Z,87.18
2022-07-28T06:28:02.707Z,87.91
2022-07-28T06:33:05.789Z,87.83
2022-07-28T06:38:10.113Z,88.13
2022-07-28T06:43:14.604Z,87.64
2022-07-28T06:48:18.777Z,87.10
2022-07-28T06:53:23.266Z,87.12
2022-07-28T06:58:25.964Z,86.96
2022-07-28T07:03:28.660Z,86.78
2022-07-28T07:08:33.080Z,85.97
2022-07-28T07:13:36.914Z,85.35
2022-07-28T07:18:39.636Z,85.42
2022-07-28T07:23:43.595Z,85.86
2022-07-28T07:28:47.987Z,85.61
2022-07-28T07:33:50.669Z,84.86
2022-07-28T07:38:54.697Z,85.36
2022-07-28T07:43:57.421Z,85.57
2022-07-28T07:49:00.222Z,85.54
2022-07-28T07:54:04.695Z,85.29
2022-07-28T07:59:07.894Z,85.37
2022-07-28T08:04:10.723Z,85.36
2022-07-28T08:09:15.393Z,84.78
2022-07-28T08:14:18.494Z,83.87
2022-07-28T08:19:21.915Z,83.23
2022-07-28T08:24:32.929Z,83.76
2022-07-28T08:29:36.869Z,82.22
2022-07-28T08:34:39.672Z,82.35
2022-07-28T08:39:43.969Z,82.06
2022-07-28T08:44:53.239Z,79.85
2022-07-28T08:49:59.402Z,78.79
2022-07-28T08:55:06.548Z,77.91
2022-07-28T09:00:10.545Z,78.08
2022-07-28T09:05:13.561Z,77.39
2022-07-28T09:10:18.867Z,76.82
2022-07-28T09:15:21.928Z,77.08
2022-07-28T09:20:25.566Z,75.67
2022-07-28T09:25:31.009Z,75.08
2022-07-28T09:30:36.467Z,74.14
2022-07-28T09:35:44.205Z,74.68
2022-07-28T09:40:59.273Z,73.96
2022-07-28T09:46:10.179Z,72.27
2022-07-28T09:51:14.769Z,72.01
2022-07-28T09:56:18.783Z,71.93
2022-07-28T10:01:22.409Z,71.89
2022-07-28T10:06:30.994Z,71.32
2022-07-28T10:11:40.944Z,71.24
2022-07-28T10:16:47.038Z,70.36
2022-07-28T10:21:55.512Z,69.85
2022-07-28T10:27:02.918Z,70.99
2022-07-28T10:32:08.177Z,70.26
2022-07-28T10:37:18.307Z,70.01
2022-07-28T10:42:22.898Z,70.79
2022-07-28T10:47:26.646Z,70.50
2022-07-28T10:52:50.676Z,68.58
2022-07-28T10:58:11.507Z,72.31
2022-07-28T11:03:37.743Z,68.51
2022-07-28T11:08:40.540Z,65.06
2022-07-28T11:13:44.730Z,66.41
2022-07-28T11:19:07.660Z,65.93
2022-07-28T11:25:18.618Z,67.15
2022-07-28T11:30:53.745Z,65.43
2022-07-28T11:35:59.200Z,65.05
2022-07-28T11:41:01.821Z,64.21
2022-07-28T11:46:37.651Z,63.23
2022-07-28T11:51:52.392Z,61.33
2022-07-28T11:56:59.272Z,63.02
2022-07-28T12:02:03.434Z,62.14
2022-07-28T12:07:09.675Z,61.45
2022-07-28T12:12:13.283Z,59.95
2022-07-28T12:17:18.524Z,60.21
2022-07-28T12:22:21.248Z,59.77
2022-07-28T12:27:38.488Z,58.46
2022-07-28T12:32:45.369Z,59.66
2022-07-28T12:37:50.671Z,59.29
2022-07-28T12:42:56.937Z,61.03
2022-07-28T12:48:08.114Z,59.86
2022-07-28T12:53:12.520Z,56.58
2022-07-28T12:58:24.497Z,57.95
2022-07-28T13:03:29.945Z,55.64
2022-07-28T13:08:44.112Z,56.35
2022-07-28T13:13:52.024Z,54.46
2022-07-28T13:18:57.861Z,53.71
2022-07-28T13:24:00.665Z,55.36
2022-07-28T13:29:04.439Z,53.69
2022-07-28T13:34:17.435Z,55.01
2022-07-28T13:39:20.611Z,53.44
2022-07-28T13:44:23.402Z,53.12
2022-07-28T13:49:28.384Z,52.20
2022-07-28T13:54:31.390Z,54.48
2022-07-28T13:59:36.262Z,56.41
2022-07-28T14:04:42.241Z,54.19
2022-07-28T14:09:50.097Z,54.87
2022-07-28T14:14:53.157Z,54.54
2022-07-28T14:19:57.292Z,53.84
2022-07-28T14:25:00.134Z,54.84
2022-07-28T14:30:04.169Z,53.04
2022-07-28T14:35:13.211Z,52.75
2022-07-28T14:40:17.441Z,50.11
2022-07-28T14:45:20.287Z,51.69
2022-07-28T14:50:25.086Z,51.30
2022-07-28T14:55:28.445Z,53.30
2022-07-28T15:00:31.234Z,53.06
2022-07-28T15:05:35.279Z,54.71
2022-07-28T15:10:39.335Z,56.12
2022-07-28T15:16:12.594Z,55.71
2022-07-28T15:21:17.682Z,55.87
2022-07-28T15:26:20.557Z,54.99
2022-07-28T15:31:24.234Z,57.95
2022-07-28T15:36:30.283Z,57.74
2022-07-28T15:41:33.304Z,57.65
2022-07-28T15:46:36.221Z,57.01
2022-07-28T15:51:41.272Z,57.74
2022-07-28T15:56:44.204Z,59.61
2022-07-28T16:01:47.125Z,58.46
2022-07-28T16:07:11.310Z,59.32
2022-07-28T16:12:14.813Z,59.71
2022-07-28T16:17:18.304Z,60.51
2022-07-28T16:22:22.840Z,60.28
2022-07-28T16:27:25.644Z,60.32
2022-07-28T16:32:28.601Z,61.56
2022-07-28T16:37:33.133Z,60.62
2022-07-28T16:42:36.667Z,61.24
2022-07-28T16:47:40.235Z,60.72
2022-07-28T16:52:44.439Z,61.33
2022-07-28T16:57:47.527Z,61.04
2022-07-28T17:02:50.520Z,61.40
2022-07-28T17:07:55.544Z,63.07
2022-07-28T17:12:58.816Z,62.37
2022-07-28T17:18:01.692Z,62.50
2022-07-28T17:23:06.498Z,63.62
2022-07-28T17:28:09.643Z,62.75
2022-07-28T17:33:12.571Z,62.25
2022-07-28T17:38:21.345Z,62.21
2022-07-28T17:43:24.599Z,62.18
2022-07-28T17:48:27.462Z,62.30
2022-07-28T17:53:31.629Z,63.38
2022-07-28T17:58:34.353Z,63.43
2022-07-28T18:03:59.760Z,63.18
2022-07-28T18:09:07.212Z,63.63
2022-07-28T18:14:11.045Z,63.67
2022-07-28T18:19:14.578Z,63.48
2022-07-28T18:24:22.260Z,63.63
2022-07-28T18:29:38.453Z,63.63
2022-07-28T18:34:41.684Z,64.11
2022-07-28T18:39:45.835Z,64.58
2022-07-28T18:44:48.656Z,65.08
2022-07-28T18:49:51.668Z,65.34
2022-07-28T18:54:56.259Z,65.37
2022-07-28T18:59:59.036Z,66.63
2022-07-28T19:05:01.864Z,66.53
2022-07-28T19:10:07.548Z,66.81
2022-07-28T19:15:10.782Z,67.03
2022-07-28T19:20:13.641Z,67.32
2022-07-28T19:25:17.715Z,67.61
2022-07-28T19:30:22.709Z,67.85
2022-07-28T19:35:25.918Z,67.72
2022-07-28T19:40:31.689Z,68.11
2022-07-28T19:45:34.738Z,68.13
2022-07-28T19:50:37.582Z,68.73
2022-07-28T19:55:41.645Z,69.24
2022-07-28T20:00:53.796Z,69.17
2022-07-28T20:05:59.866Z,69.42
2022-07-28T20:11:04.302Z,69.71
2022-07-28T20:16:07.527Z,69.71
2022-07-28T20:21:10.312Z,70.39
2022-07-28T20:26:15.372Z,69.54
2022-07-28T20:31:19.086Z,69.78
2022-07-28T20:36:25.079Z,69.53
2022-07-28T20:41:33.227Z,69.71
2022-07-28T20:46:37.001Z,69.12
2022-07-28T20:51:40.135Z,69.13
2022-07-28T20:56:55.490Z,68.67
2022-07-28T21:01:58.894Z,69.51
2022-07-28T21:07:04.156Z,69.28
2022-07-28T21:12:09.507Z,69.59
2022-07-28T21:17:12.406Z,69.86
2022-07-28T21:22:16.274Z,69.96
2022-07-28T21:27:21.341Z,69.61
2022-07-28T21:32:24.248Z,70.01
2022-07-28T21:37:27.346Z,70.21
2022-07-28T21:42:31.550Z,70.84
2022-07-28T21:47:35.377Z,70.53
2022-07-28T21:52:41.235Z,70.22
2022-07-28T21:57:46.485Z,71.09
2022-07-28T22:02:49.543Z,70.72
2022-07-28T22:07:52.753Z,70.93
2022-07-28T22:12:59.472Z,71.06
2022-07-28T22:18:02.189Z,70.97
2022-07-28T22:23:05.141Z,70.63
2022-07-28T22:28:30.712Z,71.24
2022-07-28T22:33:33.668Z,71.24
2022-07-28T22:38:36.466Z,71.94
2022-07-28T22:43:40.952Z,71.62
2022-07-28T22:48:44.597Z,71.78
2022-07-28T22:53:47.415Z,71.30
2022-07-28T22:58:51.401Z,71.15
2022-07-28T23:03:54.039Z,71.36
2022-07-28T23:08:56.973Z,71.25
2022-07-28T23:14:01.024Z,71.26
2022-07-28T23:19:03.900Z,71.28
2022-07-28T23:24:07.381Z,71.96
2022-07-28T23:29:11.392Z,71.54
2022-07-28T23:34:14.435Z,71.80
2022-07-28T23:39:17.247Z,71.42
2022-07-28T23:44:21.145Z,72.09
2022-07-28T23:49:24.150Z,71.97
2022-07-28T23:54:26.758Z,72.88
2022-07-28T23:59:32.156Z,72.40
